sensor_id;sensor_type;location;lat;lon;timestamp;temperature;humidity
21149;DHT22;10732;51.472;6.466;2022-09-09T00:04:13;14.10;99.90
21149;DHT22;10732;51.472;6.466;2022-09-09T00:06:45;14.00;99.90
21149;DHT22;10732;51.472;6.466;2022-09-09T00:09:21;13.90;99.90
21149;DHT22;10732;51.472;6.466;2022-09-09T00:12:00;13.90;99.90
21149;DHT22;10732;51.472;6.466;2022-09-09T00:22:40;13.70;99.90
21149;DHT22;10732;51.472;6.466;2022-09-09T00:25:14;13.80;99.90
21149;DHT22;10732;51.472;6.466;2022-09-09T00:27:46;13.90;99.90
21149;DHT22;10732;51.472;6.466;2022-09-09T00:30:26;14.00;99.90
21149;DHT22;10732;51.472;6.466;2022-09-09T00:32:55;14.00;99.90
21149;DHT22;10732;51.472;6.466;2022-09-09T00:38:01;14.10;99.90
21149;DHT22;10732;51.472;6.466;2022-09-09T00:41:20;14.10;99.90
21149;DHT22;10732;51.472;6.466;2022-09-09T00:43:31;14.10;99.90
21149;DHT22;10732;51.472;6.466;2022-09-09T00:48:35;14.10;99.90
21149;DHT22;10732;51.472;6.466;2022-09-09T00:51:13;14.00;99.90
21149;DHT22;10732;51.472;6.466;2022-09-09T00:53:58;14.00;99.90
21149;DHT22;10732;51.472;6.466;2022-09-09T00:56:31;14.00;99.90
21149;DHT22;10732;51.472;6.466;2022-09-09T01:01:56;13.90;99.90
21149;DHT22;10732;51.472;6.466;2022-09-09T01:04:34;13.90;99.90
21149;DHT22;10732;51.472;6.466;2022-09-09T01:07:12;13.80;99.90
21149;DHT22;10732;51.472;6.466;2022-09-09T01:12:23;13.80;99.90
21149;DHT22;10732;51.472;6.466;2022-09-09T01:14:53;13.90;99.90
21149;DHT22;10732;51.472;6.466;2022-09-09T01:17:25;13.90;99.90
21149;DHT22;10732;51.472;6.466;2022-09-09T01:28:36;13.80;99.90
21149;DHT22;10732;51.472;6.466;2022-09-09T01:31:04;13.70;99.90
21149;DHT22;10732;51.472;6.466;2022-09-09T01:33:31;13.70;99.90
21149;DHT22;10732;51.472;6.466;2022-09-09T01:35:57;13.70;99.90
21149;DHT22;10732;51.472;6.466;2022-09-09T01:38:26;13.70;99.90
21149;DHT22;10732;51.472;6.466;2022-09-09T01:40:53;13.70;99.90
21149;DHT22;10732;51.472;6.466;2022-09-09T01:43:20;13.70;99.90
21149;DHT22;10732;51.472;6.466;2022-09-09T01:45:48;13.70;99.90
21149;DHT22;10732;51.472;6.466;2022-09-09T01:48:15;13.80;99.90
21149;DHT22;10732;51.472;6.466;2022-09-09T01:50:40;13.80;99.90
21149;DHT22;10732;51.472;6.466;2022-09-09T01:53:06;13.80;99.90
21149;DHT22;10732;51.472;6.466;2022-09-09T01:55:38;13.80;99.90
21149;DHT22;10732;51.472;6.466;2022-09-09T02:01:00;13.80;99.90
21149;DHT22;10732;51.472;6.466;2022-09-09T02:03:29;13.90;99.90
21149;DHT22;10732;51.472;6.466;2022-09-09T02:08:49;13.90;99.90
21149;DHT22;10732;51.472;6.466;2022-09-09T02:13:45;13.90;99.90
21149;DHT22;10732;51.472;6.466;2022-09-09T02:18:44;13.90;99.90
21149;DHT22;10732;51.472;6.466;2022-09-09T02:21:13;13.90;99.90
21149;DHT22;10732;51.472;6.466;2022-09-09T02:23:40;13.80;99.90
21149;DHT22;10732;51.472;6.466;2022-09-09T02:26:09;13.80;99.90
21149;DHT22;10732;51.472;6.466;2022-09-09T02:28:36;13.80;99.90
21149;DHT22;10732;51.472;6.466;2022-09-09T02:31:03;13.90;99.90
21149;DHT22;10732;51.472;6.466;2022-09-09T02:33:35;13.80;99.90
21149;DHT22;10732;51.472;6.466;2022-09-09T02:36:03;13.80;99.90
21149;DHT22;10732;51.472;6.466;2022-09-09T02:38:35;13.90;99.90
21149;DHT22;10732;51.472;6.466;2022-09-09T02:41:02;13.90;99.90
21149;DHT22;10732;51.472;6.466;2022-09-09T02:43:33;13.90;99.90
21149;DHT22;10732;51.472;6.466;2022-09-09T02:49:18;13.90;99.90
21149;DHT22;10732;51.472;6.466;2022-09-09T02:54:27;14.00;99.90
21149;DHT22;10732;51.472;6.466;2022-09-09T02:57:04;14.00;99.90
21149;DHT22;10732;51.472;6.466;2022-09-09T02:59:31;14.10;99.90
21149;DHT22;10732;51.472;6.466;2022-09-09T03:01:57;14.10;99.90
21149;DHT22;10732;51.472;6.466;2022-09-09T03:04:23;14.10;99.90
21149;DHT22;10732;51.472;6.466;2022-09-09T03:06:49;14.10;99.90
21149;DHT22;10732;51.472;6.466;2022-09-09T03:09:15;14.20;99.90
21149;DHT22;10732;51.472;6.466;2022-09-09T03:11:40;14.20;99.90
21149;DHT22;10732;51.472;6.466;2022-09-09T03:14:06;14.20;99.90
21149;DHT22;10732;51.472;6.466;2022-09-09T03:16:32;14.20;99.90
21149;DHT22;10732;51.472;6.466;2022-09-09T03:19:00;14.20;99.90
21149;DHT22;10732;51.472;6.466;2022-09-09T03:21:25;14.20;99.90
21149;DHT22;10732;51.472;6.466;2022-09-09T03:23:51;14.20;99.90
21149;DHT22;10732;51.472;6.466;2022-09-09T03:26:16;14.20;99.90
21149;DHT22;10732;51.472;6.466;2022-09-09T03:28:42;14.20;99.90
21149;DHT22;10732;51.472;6.466;2022-09-09T03:31:10;14.20;99.90
21149;DHT22;10732;51.472;6.466;2022-09-09T03:33:39;14.20;99.90
21149;DHT22;10732;51.472;6.466;2022-09-09T03:36:06;14.20;99.90
21149;DHT22;10732;51.472;6.466;2022-09-09T03:38:33;14.20;99.90
21149;DHT22;10732;51.472;6.466;2022-09-09T03:40:59;14.20;99.90
21149;DHT22;10732;51.472;6.466;2022-09-09T03:43:26;14.20;99.90
21149;DHT22;10732;51.472;6.466;2022-09-09T03:45:52;14.30;99.90
21149;DHT22;10732;51.472;6.466;2022-09-09T03:48:18;14.30;99.90
21149;DHT22;10732;51.472;6.466;2022-09-09T03:50:49;14.30;99.90
21149;DHT22;10732;51.472;6.466;2022-09-09T03:53:16;14.30;99.90
21149;DHT22;10732;51.472;6.466;2022-09-09T03:55:50;14.40;99.90
21149;DHT22;10732;51.472;6.466;2022-09-09T03:58:18;14.40;99.90
21149;DHT22;10732;51.472;6.466;2022-09-09T04:00:59;14.40;99.90
21149;DHT22;10732;51.472;6.466;2022-09-09T04:03:25;14.40;99.90
21149;DHT22;10732;51.472;6.466;2022-09-09T04:05:56;14.40;99.90
21149;DHT22;10732;51.472;6.466;2022-09-09T04:08:22;14.40;99.90
21149;DHT22;10732;51.472;6.466;2022-09-09T04:10:50;14.40;99.90
21149;DHT22;10732;51.472;6.466;2022-09-09T04:13:17;14.40;99.90
21149;DHT22;10732;51.472;6.466;2022-09-09T04:15:44;14.40;99.90
21149;DHT22;10732;51.472;6.466;2022-09-09T04:18:15;14.50;99.90
21149;DHT22;10732;51.472;6.466;2022-09-09T04:20:40;14.40;99.90
21149;DHT22;10732;51.472;6.466;2022-09-09T04:23:08;14.50;99.90
21149;DHT22;10732;51.472;6.466;2022-09-09T04:25:34;14.50;99.90
21149;DHT22;10732;51.472;6.466;2022-09-09T04:27:59;14.50;99.90
21149;DHT22;10732;51.472;6.466;2022-09-09T04:30:25;14.50;99.90
21149;DHT22;10732;51.472;6.466;2022-09-09T04:32:52;14.50;99.90
21149;DHT22;10732;51.472;6.466;2022-09-09T04:35:18;14.50;99.90
21149;DHT22;10732;51.472;6.466;2022-09-09T04:37:45;14.50;99.90
21149;DHT22;10732;51.472;6.466;2022-09-09T04:40:11;14.50;99.90
21149;DHT22;10732;51.472;6.466;2022-09-09T04:42:38;14.50;99.90
21149;DHT22;10732;51.472;6.466;2022-09-09T04:45:05;14.50;99.90
21149;DHT22;10732;51.472;6.466;2022-09-09T04:47:32;14.50;99.90
21149;DHT22;10732;51.472;6.466;2022-09-09T04:49:58;14.60;99.90
21149;DHT22;10732;51.472;6.466;2022-09-09T04:52:23;14.50;99.90
21149;DHT22;10732;51.472;6.466;2022-09-09T04:54:49;14.50;99.90
21149;DHT22;10732;51.472;6.466;2022-09-09T04:57:14;14.50;99.90
21149;DHT22;10732;51.472;6.466;2022-09-09T04:59:40;14.60;99.90
21149;DHT22;10732;51.472;6.466;2022-09-09T05:02:06;14.50;99.90
21149;DHT22;10732;51.472;6.466;2022-09-09T05:04:32;14.60;99.90
21149;DHT22;10732;51.472;6.466;2022-09-09T05:06:58;14.60;99.90
21149;DHT22;10732;51.472;6.466;2022-09-09T05:09:24;14.60;99.90
21149;DHT22;10732;51.472;6.466;2022-09-09T05:11:49;14.60;99.90
21149;DHT22;10732;51.472;6.466;2022-09-09T05:14:15;14.60;99.90
21149;DHT22;10732;51.472;6.466;2022-09-09T05:16:41;14.50;99.90
21149;DHT22;10732;51.472;6.466;2022-09-09T05:19:07;14.60;99.90
21149;DHT22;10732;51.472;6.466;2022-09-09T05:21:33;14.60;99.90
21149;DHT22;10732;51.472;6.466;2022-09-09T05:23:59;14.60;99.90
21149;DHT22;10732;51.472;6.466;2022-09-09T05:26:28;14.60;99.90
21149;DHT22;10732;51.472;6.466;2022-09-09T05:28:55;14.60;99.90
21149;DHT22;10732;51.472;6.466;2022-09-09T05:31:21;14.70;99.90
21149;DHT22;10732;51.472;6.466;2022-09-09T05:33:47;14.80;99.90
21149;DHT22;10732;51.472;6.466;2022-09-09T05:36:16;14.90;99.90
21149;DHT22;10732;51.472;6.466;2022-09-09T05:38:43;14.90;99.90
21149;DHT22;10732;51.472;6.466;2022-09-09T05:41:09;15.00;99.90
21149;DHT22;10732;51.472;6.466;2022-09-09T05:43:36;15.00;99.90
21149;DHT22;10732;51.472;6.466;2022-09-09T05:48:30;15.10;99.90
21149;DHT22;10732;51.472;6.466;2022-09-09T05:50:56;15.20;99.90
21149;DHT22;10732;51.472;6.466;2022-09-09T05:53:21;15.30;99.90
21149;DHT22;10732;51.472;6.466;2022-09-09T05:55:47;15.30;99.90
21149;DHT22;10732;51.472;6.466;2022-09-09T05:58:13;15.30;99.90
21149;DHT22;10732;51.472;6.466;2022-09-09T06:00:40;15.40;99.90
21149;DHT22;10732;51.472;6.466;2022-09-09T06:03:10;15.50;99.90
21149;DHT22;10732;51.472;6.466;2022-09-09T06:05:36;15.70;99.90
21149;DHT22;10732;51.472;6.466;2022-09-09T06:08:01;15.90;99.90
21149;DHT22;10732;51.472;6.466;2022-09-09T06:10:27;16.10;99.90
21149;DHT22;10732;51.472;6.466;2022-09-09T06:12:53;16.20;99.90
21149;DHT22;10732;51.472;6.466;2022-09-09T06:15:19;16.30;99.90
21149;DHT22;10732;51.472;6.466;2022-09-09T06:17:44;16.50;99.90
21149;DHT22;10732;51.472;6.466;2022-09-09T06:20:10;16.70;99.90
21149;DHT22;10732;51.472;6.466;2022-09-09T06:22:38;16.60;99.90
21149;DHT22;10732;51.472;6.466;2022-09-09T06:25:04;16.70;99.90
21149;DHT22;10732;51.472;6.466;2022-09-09T06:27:30;16.50;99.90
21149;DHT22;10732;51.472;6.466;2022-09-09T06:29:56;16.30;99.90
21149;DHT22;10732;51.472;6.466;2022-09-09T06:32:24;16.20;99.90
21149;DHT22;10732;51.472;6.466;2022-09-09T06:34:52;16.20;99.90
21149;DHT22;10732;51.472;6.466;2022-09-09T06:37:17;16.30;99.90
21149;DHT22;10732;51.472;6.466;2022-09-09T06:39:43;16.60;99.90
21149;DHT22;10732;51.472;6.466;2022-09-09T06:42:09;17.50;99.90
21149;DHT22;10732;51.472;6.466;2022-09-09T06:44:34;18.40;99.90
21149;DHT22;10732;51.472;6.466;2022-09-09T06:47:00;19.70;99.90
21149;DHT22;10732;51.472;6.466;2022-09-09T06:49:25;20.20;99.90
21149;DHT22;10732;51.472;6.466;2022-09-09T06:51:51;20.10;99.90
21149;DHT22;10732;51.472;6.466;2022-09-09T06:54:17;19.80;99.90
21149;DHT22;10732;51.472;6.466;2022-09-09T06:56:43;19.00;99.90
21149;DHT22;10732;51.472;6.466;2022-09-09T06:59:11;18.40;99.90
21149;DHT22;10732;51.472;6.466;2022-09-09T07:01:42;18.30;99.90
21149;DHT22;10732;51.472;6.466;2022-09-09T07:04:09;18.50;99.90
21149;DHT22;10732;51.472;6.466;2022-09-09T07:06:41;19.60;99.90
21149;DHT22;10732;51.472;6.466;2022-09-09T07:09:10;20.70;99.90
21149;DHT22;10732;51.472;6.466;2022-09-09T07:11:44;22.10;99.90
21149;DHT22;10732;51.472;6.466;2022-09-09T07:14:10;21.40;99.90
21149;DHT22;10732;51.472;6.466;2022-09-09T07:16:40;21.60;99.90
21149;DHT22;10732;51.472;6.466;2022-09-09T07:19:05;22.20;99.90
21149;DHT22;10732;51.472;6.466;2022-09-09T07:21:32;21.40;99.90
21149;DHT22;10732;51.472;6.466;2022-09-09T07:23:58;20.10;99.90
21149;DHT22;10732;51.472;6.466;2022-09-09T07:26:27;19.30;99.90
21149;DHT22;10732;51.472;6.466;2022-09-09T07:28:53;19.10;99.90
21149;DHT22;10732;51.472;6.466;2022-09-09T07:31:25;19.00;99.90
21149;DHT22;10732;51.472;6.466;2022-09-09T07:33:51;18.50;99.90
21149;DHT22;10732;51.472;6.466;2022-09-09T07:36:19;19.00;99.90
21149;DHT22;10732;51.472;6.466;2022-09-09T07:38:53;20.20;99.90
21149;DHT22;10732;51.472;6.466;2022-09-09T07:41:46;20.60;99.90
21149;DHT22;10732;51.472;6.466;2022-09-09T07:44:18;21.40;99.90
21149;DHT22;10732;51.472;6.466;2022-09-09T07:46:44;20.70;99.90
21149;DHT22;10732;51.472;6.466;2022-09-09T07:49:12;20.60;99.90
21149;DHT22;10732;51.472;6.466;2022-09-09T07:51:40;20.50;99.90
21149;DHT22;10732;51.472;6.466;2022-09-09T07:54:08;20.50;99.90
21149;DHT22;10732;51.472;6.466;2022-09-09T07:56:35;20.30;99.90
21149;DHT22;10732;51.472;6.466;2022-09-09T07:59:01;19.50;99.90
21149;DHT22;10732;51.472;6.466;2022-09-09T08:01:30;20.50;99.90
21149;DHT22;10732;51.472;6.466;2022-09-09T08:04:01;20.50;99.90
21149;DHT22;10732;51.472;6.466;2022-09-09T08:06:28;20.80;99.90
21149;DHT22;10732;51.472;6.466;2022-09-09T08:08:55;22.20;99.90
21149;DHT22;10732;51.472;6.466;2022-09-09T08:11:22;22.90;99.90
21149;DHT22;10732;51.472;6.466;2022-09-09T08:13:49;23.00;99.90
21149;DHT22;10732;51.472;6.466;2022-09-09T08:16:18;23.10;99.90
21149;DHT22;10732;51.472;6.466;2022-09-09T08:18:44;22.70;99.90
21149;DHT22;10732;51.472;6.466;2022-09-09T08:21:15;23.20;99.90
21149;DHT22;10732;51.472;6.466;2022-09-09T08:23:43;23.40;99.90
21149;DHT22;10732;51.472;6.466;2022-09-09T08:26:33;22.10;99.90
21149;DHT22;10732;51.472;6.466;2022-09-09T08:29:00;19.70;99.90
21149;DHT22;10732;51.472;6.466;2022-09-09T08:31:27;20.40;99.90
21149;DHT22;10732;51.472;6.466;2022-09-09T08:33:54;20.20;99.90
21149;DHT22;10732;51.472;6.466;2022-09-09T08:36:23;20.30;99.90
21149;DHT22;10732;51.472;6.466;2022-09-09T08:38:54;19.80;99.90
21149;DHT22;10732;51.472;6.466;2022-09-09T08:47:14;19.70;99.90
21149;DHT22;10732;51.472;6.466;2022-09-09T08:52:18;19.40;99.90
21149;DHT22;10732;51.472;6.466;2022-09-09T08:54:45;19.10;99.90
21149;DHT22;10732;51.472;6.466;2022-09-09T08:57:20;19.00;99.90
21149;DHT22;10732;51.472;6.466;2022-09-09T08:59:46;19.10;99.90
21149;DHT22;10732;51.472;6.466;2022-09-09T09:02:32;19.00;99.90
21149;DHT22;10732;51.472;6.466;2022-09-09T09:07:50;19.50;99.90
21149;DHT22;10732;51.472;6.466;2022-09-09T09:12:57;19.50;99.90
21149;DHT22;10732;51.472;6.466;2022-09-09T09:15:25;19.80;99.90
21149;DHT22;10732;51.472;6.466;2022-09-09T09:17:51;19.60;99.90
21149;DHT22;10732;51.472;6.466;2022-09-09T09:20:25;19.30;99.90
21149;DHT22;10732;51.472;6.466;2022-09-09T09:22:59;19.10;99.90
21149;DHT22;10732;51.472;6.466;2022-09-09T09:25:39;18.80;99.90
21149;DHT22;10732;51.472;6.466;2022-09-09T09:28:24;18.80;99.90
21149;DHT22;10732;51.472;6.466;2022-09-09T09:31:06;18.80;99.90
21149;DHT22;10732;51.472;6.466;2022-09-09T09:36:07;20.90;99.90
21149;DHT22;10732;51.472;6.466;2022-09-09T09:38:34;22.60;99.90
21149;DHT22;10732;51.472;6.466;2022-09-09T09:41:01;21.90;99.90
21149;DHT22;10732;51.472;6.466;2022-09-09T09:43:29;21.90;99.90
21149;DHT22;10732;51.472;6.466;2022-09-09T09:45:55;21.50;99.90
21149;DHT22;10732;51.472;6.466;2022-09-09T09:48:23;21.70;99.90
21149;DHT22;10732;51.472;6.466;2022-09-09T09:51:00;22.30;99.90
21149;DHT22;10732;51.472;6.466;2022-09-09T09:53:32;21.70;99.90
21149;DHT22;10732;51.472;6.466;2022-09-09T09:56:16;21.80;99.90
21149;DHT22;10732;51.472;6.466;2022-09-09T09:58:51;21.50;99.90
21149;DHT22;10732;51.472;6.466;2022-09-09T10:01:25;20.60;99.90
21149;DHT22;10732;51.472;6.466;2022-09-09T10:03:54;20.40;99.90
21149;DHT22;10732;51.472;6.466;2022-09-09T10:06:36;20.50;99.90
21149;DHT22;10732;51.472;6.466;2022-09-09T10:09:17;20.00;99.90
21149;DHT22;10732;51.472;6.466;2022-09-09T10:11:57;20.10;99.90
21149;DHT22;10732;51.472;6.466;2022-09-09T10:17:22;19.70;99.90
21149;DHT22;10732;51.472;6.466;2022-09-09T10:22:33;19.40;99.90
21149;DHT22;10732;51.472;6.466;2022-09-09T10:30:48;19.20;99.90
21149;DHT22;10732;51.472;6.466;2022-09-09T10:36:21;18.90;99.90
21149;DHT22;10732;51.472;6.466;2022-09-09T10:38:54;18.80;99.90
21149;DHT22;10732;51.472;6.466;2022-09-09T10:47:00;19.20;99.90
21149;DHT22;10732;51.472;6.466;2022-09-09T10:52:37;19.60;99.90
21149;DHT22;10732;51.472;6.466;2022-09-09T10:55:17;19.80;99.90
21149;DHT22;10732;51.472;6.466;2022-09-09T10:57:51;20.10;99.90
21149;DHT22;10732;51.472;6.466;2022-09-09T11:00:20;19.60;99.90
21149;DHT22;10732;51.472;6.466;2022-09-09T11:02:57;19.50;99.90
21149;DHT22;10732;51.472;6.466;2022-09-09T11:05:41;19.50;99.90
21149;DHT22;10732;51.472;6.466;2022-09-09T11:10:46;19.10;99.90
21149;DHT22;10732;51.472;6.466;2022-09-09T11:15:57;19.60;99.90
21149;DHT22;10732;51.472;6.466;2022-09-09T11:18:38;20.40;99.90
21149;DHT22;10732;51.472;6.466;2022-09-09T11:21:57;21.00;99.90
21149;DHT22;10732;51.472;6.466;2022-09-09T11:24:10;20.80;99.90
21149;DHT22;10732;51.472;6.466;2022-09-09T11:26:47;20.60;99.90
21149;DHT22;10732;51.472;6.466;2022-09-09T11:38:14;20.40;99.90
21149;DHT22;10732;51.472;6.466;2022-09-09T11:40:41;20.60;99.90
21149;DHT22;10732;51.472;6.466;2022-09-09T11:43:33;20.40;99.90
21149;DHT22;10732;51.472;6.466;2022-09-09T11:46:05;20.80;99.90
21149;DHT22;10732;51.472;6.466;2022-09-09T11:51:03;20.80;99.90
21149;DHT22;10732;51.472;6.466;2022-09-09T11:53:30;20.70;99.90
21149;DHT22;10732;51.472;6.466;2022-09-09T11:56:11;20.50;99.90
21149;DHT22;10732;51.472;6.466;2022-09-09T12:15:00;19.30;99.90
21149;DHT22;10732;51.472;6.466;2022-09-09T12:17:28;19.10;99.90
21149;DHT22;10732;51.472;6.466;2022-09-09T12:20:03;19.10;99.90
21149;DHT22;10732;51.472;6.466;2022-09-09T12:30:32;18.40;99.90
21149;DHT22;10732;51.472;6.466;2022-09-09T12:33:02;18.60;99.90
21149;DHT22;10732;51.472;6.466;2022-09-09T12:35:28;18.40;99.90
21149;DHT22;10732;51.472;6.466;2022-09-09T12:37:59;18.30;99.90
21149;DHT22;10732;51.472;6.466;2022-09-09T12:40:33;18.60;99.90
21149;DHT22;10732;51.472;6.466;2022-09-09T12:43:01;18.90;99.90
21149;DHT22;10732;51.472;6.466;2022-09-09T12:45:30;19.10;99.90
21149;DHT22;10732;51.472;6.466;2022-09-09T12:48:06;19.20;99.90
21149;DHT22;10732;51.472;6.466;2022-09-09T12:50:37;19.30;99.90
21149;DHT22;10732;51.472;6.466;2022-09-09T12:53:23;19.60;99.90
21149;DHT22;10732;51.472;6.466;2022-09-09T12:55:55;19.40;99.90
21149;DHT22;10732;51.472;6.466;2022-09-09T12:58:22;19.30;99.90
21149;DHT22;10732;51.472;6.466;2022-09-09T13:00:56;19.20;99.90
21149;DHT22;10732;51.472;6.466;2022-09-09T13:03:22;19.30;99.90
21149;DHT22;10732;51.472;6.466;2022-09-09T13:05:49;19.40;99.90
21149;DHT22;10732;51.472;6.466;2022-09-09T13:08:15;19.60;99.90
21149;DHT22;10732;51.472;6.466;2022-09-09T13:13:20;19.80;99.90
21149;DHT22;10732;51.472;6.466;2022-09-09T13:15:58;19.50;99.90
21149;DHT22;10732;51.472;6.466;2022-09-09T13:18:28;19.20;99.90
21149;DHT22;10732;51.472;6.466;2022-09-09T13:20:55;19.10;99.90
21149;DHT22;10732;51.472;6.466;2022-09-09T13:23:32;19.40;99.90
21149;DHT22;10732;51.472;6.466;2022-09-09T13:26:05;19.50;99.90
21149;DHT22;10732;51.472;6.466;2022-09-09T13:28:33;19.40;99.90
21149;DHT22;10732;51.472;6.466;2022-09-09T13:31:02;19.50;99.90
21149;DHT22;10732;51.472;6.466;2022-09-09T13:33:38;19.50;99.90
21149;DHT22;10732;51.472;6.466;2022-09-09T13:36:08;19.80;99.90
21149;DHT22;10732;51.472;6.466;2022-09-09T13:38:37;19.90;99.90
21149;DHT22;10732;51.472;6.466;2022-09-09T13:41:06;20.30;99.90
21149;DHT22;10732;51.472;6.466;2022-09-09T13:43:44;20.20;99.90
21149;DHT22;10732;51.472;6.466;2022-09-09T13:46:31;20.50;99.90
21149;DHT22;10732;51.472;6.466;2022-09-09T13:48:59;20.50;99.90
21149;DHT22;10732;51.472;6.466;2022-09-09T13:51:40;20.50;99.90
21149;DHT22;10732;51.472;6.466;2022-09-09T13:54:09;20.30;99.90
21149;DHT22;10732;51.472;6.466;2022-09-09T13:56:35;20.30;99.90
21149;DHT22;10732;51.472;6.466;2022-09-09T13:59:04;20.00;99.90
21149;DHT22;10732;51.472;6.466;2022-09-09T14:01:30;19.60;99.90
21149;DHT22;10732;51.472;6.466;2022-09-09T14:03:56;19.50;99.90
21149;DHT22;10732;51.472;6.466;2022-09-09T14:06:22;19.10;99.90
21149;DHT22;10732;51.472;6.466;2022-09-09T14:08:49;19.00;99.90
21149;DHT22;10732;51.472;6.466;2022-09-09T14:11:16;18.50;99.90
21149;DHT22;10732;51.472;6.466;2022-09-09T14:13:42;18.10;99.90
21149;DHT22;10732;51.472;6.466;2022-09-09T14:16:07;18.00;99.90
21149;DHT22;10732;51.472;6.466;2022-09-09T14:18:33;17.90;99.90
21149;DHT22;10732;51.472;6.466;2022-09-09T14:20:59;17.60;99.90
21149;DHT22;10732;51.472;6.466;2022-09-09T14:23:25;17.70;99.90
21149;DHT22;10732;51.472;6.466;2022-09-09T14:25:51;17.60;99.90
21149;DHT22;10732;51.472;6.466;2022-09-09T14:28:17;17.60;99.90
21149;DHT22;10732;51.472;6.466;2022-09-09T14:30:44;17.60;99.90
21149;DHT22;10732;51.472;6.466;2022-09-09T14:33:14;17.60;99.90
21149;DHT22;10732;51.472;6.466;2022-09-09T14:35:40;17.50;99.90
21149;DHT22;10732;51.472;6.466;2022-09-09T14:38:07;17.00;99.90
21149;DHT22;10732;51.472;6.466;2022-09-09T14:40:34;16.70;99.90
21149;DHT22;10732;51.472;6.466;2022-09-09T14:43:00;16.70;99.90
21149;DHT22;10732;51.472;6.466;2022-09-09T14:45:26;16.40;99.90
21149;DHT22;10732;51.472;6.466;2022-09-09T14:47:52;16.30;99.90
21149;DHT22;10732;51.472;6.466;2022-09-09T14:50:19;16.20;99.90
21149;DHT22;10732;51.472;6.466;2022-09-09T14:52:45;16.20;99.90
21149;DHT22;10732;51.472;6.466;2022-09-09T14:55:12;16.20;99.90
21149;DHT22;10732;51.472;6.466;2022-09-09T14:57:37;16.30;99.90
21149;DHT22;10732;51.472;6.466;2022-09-09T15:00:04;16.40;99.90
21149;DHT22;10732;51.472;6.466;2022-09-09T15:02:30;16.50;99.90
21149;DHT22;10732;51.472;6.466;2022-09-09T15:04:56;16.40;99.90
21149;DHT22;10732;51.472;6.466;2022-09-09T15:07:25;16.50;99.90
21149;DHT22;10732;51.472;6.466;2022-09-09T15:09:52;16.80;99.90
21149;DHT22;10732;51.472;6.466;2022-09-09T15:12:18;17.10;99.90
21149;DHT22;10732;51.472;6.466;2022-09-09T15:14:44;17.20;99.90
21149;DHT22;10732;51.472;6.466;2022-09-09T15:17:11;17.50;99.90
21149;DHT22;10732;51.472;6.466;2022-09-09T15:19:37;17.40;99.90
21149;DHT22;10732;51.472;6.466;2022-09-09T15:22:04;17.80;99.90
21149;DHT22;10732;51.472;6.466;2022-09-09T15:24:31;17.90;99.90
21149;DHT22;10732;51.472;6.466;2022-09-09T15:26:57;17.70;99.90
21149;DHT22;10732;51.472;6.466;2022-09-09T15:29:23;17.90;99.90
21149;DHT22;10732;51.472;6.466;2022-09-09T15:31:48;17.80;99.90
21149;DHT22;10732;51.472;6.466;2022-09-09T15:34:14;18.00;99.90
21149;DHT22;10732;51.472;6.466;2022-09-09T15:36:42;18.30;99.90
21149;DHT22;10732;51.472;6.466;2022-09-09T15:39:10;18.10;99.90
21149;DHT22;10732;51.472;6.466;2022-09-09T15:41:38;18.10;99.90
21149;DHT22;10732;51.472;6.466;2022-09-09T15:44:04;18.00;99.90
21149;DHT22;10732;51.472;6.466;2022-09-09T15:46:41;18.20;99.90
21149;DHT22;10732;51.472;6.466;2022-09-09T15:49:10;18.20;99.90
21149;DHT22;10732;51.472;6.466;2022-09-09T15:51:42;18.20;99.90
21149;DHT22;10732;51.472;6.466;2022-09-09T15:54:10;18.30;99.90
21149;DHT22;10732;51.472;6.466;2022-09-09T15:56:36;18.20;99.90
21149;DHT22;10732;51.472;6.466;2022-09-09T15:59:02;18.30;99.90
21149;DHT22;10732;51.472;6.466;2022-09-09T16:01:29;18.00;99.90
21149;DHT22;10732;51.472;6.466;2022-09-09T16:03:56;17.90;99.90
21149;DHT22;10732;51.472;6.466;2022-09-09T16:06:23;18.10;99.90
21149;DHT22;10732;51.472;6.466;2022-09-09T16:08:51;18.30;99.90
21149;DHT22;10732;51.472;6.466;2022-09-09T16:11:26;18.30;99.90
21149;DHT22;10732;51.472;6.466;2022-09-09T16:13:53;18.30;99.90
21149;DHT22;10732;51.472;6.466;2022-09-09T16:16:22;18.20;99.90
21149;DHT22;10732;51.472;6.466;2022-09-09T16:19:25;18.10;99.90
21149;DHT22;10732;51.472;6.466;2022-09-09T16:21:46;18.10;99.90
21149;DHT22;10732;51.472;6.466;2022-09-09T16:24:15;18.00;99.90
21149;DHT22;10732;51.472;6.466;2022-09-09T16:26:43;18.00;99.90
21149;DHT22;10732;51.472;6.466;2022-09-09T16:29:13;18.20;99.90
21149;DHT22;10732;51.472;6.466;2022-09-09T16:31:39;18.30;99.90
21149;DHT22;10732;51.472;6.466;2022-09-09T16:34:06;17.90;99.90
21149;DHT22;10732;51.472;6.466;2022-09-09T16:36:35;17.90;99.90
21149;DHT22;10732;51.472;6.466;2022-09-09T16:39:05;18.10;99.90
21149;DHT22;10732;51.472;6.466;2022-09-09T16:41:32;18.10;99.90
21149;DHT22;10732;51.472;6.466;2022-09-09T16:44:01;18.10;99.90
21149;DHT22;10732;51.472;6.466;2022-09-09T16:46:28;18.20;99.90
21149;DHT22;10732;51.472;6.466;2022-09-09T16:48:56;18.30;99.90
21149;DHT22;10732;51.472;6.466;2022-09-09T16:51:27;18.30;99.90
21149;DHT22;10732;51.472;6.466;2022-09-09T16:53:54;18.20;99.90
21149;DHT22;10732;51.472;6.466;2022-09-09T16:56:22;18.10;99.90
21149;DHT22;10732;51.472;6.466;2022-09-09T16:58:52;18.10;99.90
21149;DHT22;10732;51.472;6.466;2022-09-09T17:01:20;18.20;99.90
21149;DHT22;10732;51.472;6.466;2022-09-09T17:03:45;18.20;99.90
21149;DHT22;10732;51.472;6.466;2022-09-09T17:06:13;18.00;99.90
21149;DHT22;10732;51.472;6.466;2022-09-09T17:08:39;18.00;99.90
21149;DHT22;10732;51.472;6.466;2022-09-09T17:11:17;18.10;99.90
21149;DHT22;10732;51.472;6.466;2022-09-09T17:13:45;18.10;99.90
21149;DHT22;10732;51.472;6.466;2022-09-09T17:16:12;18.00;99.90
21149;DHT22;10732;51.472;6.466;2022-09-09T17:18:39;18.00;99.90
21149;DHT22;10732;51.472;6.466;2022-09-09T17:21:11;17.90;99.90
21149;DHT22;10732;51.472;6.466;2022-09-09T17:23:37;17.90;99.90
21149;DHT22;10732;51.472;6.466;2022-09-09T17:26:05;17.80;99.90
21149;DHT22;10732;51.472;6.466;2022-09-09T17:28:33;17.70;99.90
21149;DHT22;10732;51.472;6.466;2022-09-09T17:31:00;17.60;99.90
21149;DHT22;10732;51.472;6.466;2022-09-09T17:33:28;17.60;99.90
21149;DHT22;10732;51.472;6.466;2022-09-09T17:35:57;17.60;99.90
21149;DHT22;10732;51.472;6.466;2022-09-09T17:38:23;17.60;99.90
21149;DHT22;10732;51.472;6.466;2022-09-09T17:40:49;17.60;99.90
21149;DHT22;10732;51.472;6.466;2022-09-09T17:43:16;17.60;99.90
21149;DHT22;10732;51.472;6.466;2022-09-09T17:45:42;17.60;99.90
21149;DHT22;10732;51.472;6.466;2022-09-09T17:48:07;17.50;99.90
21149;DHT22;10732;51.472;6.466;2022-09-09T17:50:33;17.50;99.90
21149;DHT22;10732;51.472;6.466;2022-09-09T17:52:59;17.50;99.90
21149;DHT22;10732;51.472;6.466;2022-09-09T17:55:24;17.50;99.90